sensor_id;sensor_type;location;lat;lon;timestamp;P1;durP1;ratioP1;P2;durP2;ratioP2
74892;SDS011;63446;56.272;43.922;2022-11-11T00:01:49;39.47;;;16.77;;
74892;SDS011;63446;56.272;43.922;2022-11-11T00:04:37;42.50;;;16.17;;
74892;SDS011;63446;56.272;43.922;2022-11-11T00:07:24;43.42;;;15.98;;
74892;SDS011;63446;56.272;43.922;2022-11-11T00:10:21;39.17;;;16.40;;
74892;SDS011;63446;56.272;43.922;2022-11-11T00:13:08;36.92;;;15.27;;
74892;SDS011;63446;56.272;43.922;2022-11-11T00:16:08;41.00;;;16.05;;
74892;SDS011;63446;56.272;43.922;2022-11-11T00:19:04;38.95;;;15.73;;
74892;SDS011;63446;56.272;43.922;2022-11-11T00:22:20;41.85;;;15.52;;
74892;SDS011;63446;56.272;43.922;2022-11-11T00:25:26;41.93;;;16.80;;
74892;SDS011;63446;56.272;43.922;2022-11-11T00:28:38;40.88;;;16.00;;
74892;SDS011;63446;56.272;43.922;2022-11-11T00:31:31;40.08;;;15.20;;
74892;SDS011;63446;56.272;43.922;2022-11-11T00:34:21;37.55;;;15.38;;
74892;SDS011;63446;56.272;43.922;2022-11-11T00:37:08;44.30;;;15.70;;
74892;SDS011;63446;56.272;43.922;2022-11-11T00:40:41;39.50;;;14.90;;
74892;SDS011;63446;56.272;43.922;2022-11-11T00:43:31;40.35;;;14.43;;
74892;SDS011;63446;56.272;43.922;2022-11-11T00:46:18;38.97;;;14.38;;
74892;SDS011;63446;56.272;43.922;2022-11-11T00:49:23;43.08;;;15.15;;
74892;SDS011;63446;56.272;43.922;2022-11-11T00:56:49;37.77;;;13.83;;
74892;SDS011;63446;56.272;43.922;2022-11-11T00:59:29;39.72;;;13.63;;
74892;SDS011;63446;56.272;43.922;2022-11-11T01:02:21;39.33;;;14.48;;
74892;SDS011;63446;56.272;43.922;2022-11-11T01:05:08;40.13;;;15.27;;
74892;SDS011;63446;56.272;43.922;2022-11-11T01:07:58;41.13;;;15.23;;
74892;SDS011;63446;56.272;43.922;2022-11-11T01:10:45;38.33;;;14.17;;
74892;SDS011;63446;56.272;43.922;2022-11-11T01:13:39;45.05;;;14.48;;
74892;SDS011;63446;56.272;43.922;2022-11-11T01:16:28;45.20;;;13.70;;
74892;SDS011;63446;56.272;43.922;2022-11-11T01:19:14;39.00;;;13.75;;
74892;SDS011;63446;56.272;43.922;2022-11-11T01:21:59;34.72;;;13.60;;
74892;SDS011;63446;56.272;43.922;2022-11-11T01:24:43;39.17;;;15.70;;
74892;SDS011;63446;56.272;43.922;2022-11-11T01:27:28;44.40;;;15.10;;
74892;SDS011;63446;56.272;43.922;2022-11-11T01:30:13;37.80;;;14.00;;
74892;SDS011;63446;56.272;43.922;2022-11-11T01:32:58;36.40;;;13.68;;
74892;SDS011;63446;56.272;43.922;2022-11-11T01:35:43;41.33;;;13.95;;
74892;SDS011;63446;56.272;43.922;2022-11-11T01:38:27;36.13;;;14.00;;
74892;SDS011;63446;56.272;43.922;2022-11-11T01:41:13;34.20;;;12.95;;
74892;SDS011;63446;56.272;43.922;2022-11-11T01:47:25;36.83;;;13.35;;
74892;SDS011;63446;56.272;43.922;2022-11-11T01:50:29;36.25;;;12.68;;
74892;SDS011;63446;56.272;43.922;2022-11-11T01:53:13;37.17;;;12.33;;
74892;SDS011;63446;56.272;43.922;2022-11-11T01:55:58;38.08;;;12.60;;
74892;SDS011;63446;56.272;43.922;2022-11-11T01:58:45;35.33;;;11.95;;
74892;SDS011;63446;56.272;43.922;2022-11-11T02:01:30;35.90;;;13.65;;
74892;SDS011;63446;56.272;43.922;2022-11-11T02:04:16;34.53;;;12.70;;
74892;SDS011;63446;56.272;43.922;2022-11-11T02:07:22;36.67;;;13.60;;
74892;SDS011;63446;56.272;43.922;2022-11-11T02:10:09;38.20;;;13.63;;
74892;SDS011;63446;56.272;43.922;2022-11-11T02:12:56;32.22;;;12.15;;
74892;SDS011;63446;56.272;43.922;2022-11-11T02:16:01;33.50;;;12.80;;
74892;SDS011;63446;56.272;43.922;2022-11-11T02:18:49;33.17;;;12.27;;
74892;SDS011;63446;56.272;43.922;2022-11-11T02:21:44;31.40;;;11.70;;
74892;SDS011;63446;56.272;43.922;2022-11-11T02:24:38;31.10;;;12.98;;
74892;SDS011;63446;56.272;43.922;2022-11-11T02:27:36;32.92;;;13.15;;
74892;SDS011;63446;56.272;43.922;2022-11-11T02:30:26;31.00;;;12.48;;
74892;SDS011;63446;56.272;43.922;2022-11-11T02:33:13;33.50;;;13.25;;
74892;SDS011;63446;56.272;43.922;2022-11-11T02:36:00;31.90;;;11.73;;
74892;SDS011;63446;56.272;43.922;2022-11-11T02:38:48;32.58;;;12.35;;
74892;SDS011;63446;56.272;43.922;2022-11-11T02:42:09;27.42;;;12.20;;
74892;SDS011;63446;56.272;43.922;2022-11-11T02:45:05;28.85;;;11.85;;
74892;SDS011;63446;56.272;43.922;2022-11-11T02:47:52;30.75;;;11.43;;
74892;SDS011;63446;56.272;43.922;2022-11-11T02:50:45;28.60;;;11.67;;
74892;SDS011;63446;56.272;43.922;2022-11-11T02:53:33;32.00;;;12.10;;
74892;SDS011;63446;56.272;43.922;2022-11-11T02:56:20;31.25;;;12.55;;
74892;SDS011;63446;56.272;43.922;2022-11-11T02:59:24;31.95;;;11.73;;
74892;SDS011;63446;56.272;43.922;2022-11-11T03:02:12;28.27;;;11.82;;
74892;SDS011;63446;56.272;43.922;2022-11-11T03:04:58;29.03;;;12.13;;
74892;SDS011;63446;56.272;43.922;2022-11-11T03:07:47;29.00;;;11.85;;
74892;SDS011;63446;56.272;43.922;2022-11-11T03:10:36;26.95;;;11.52;;
74892;SDS011;63446;56.272;43.922;2022-11-11T03:13:21;32.83;;;13.02;;
74892;SDS011;63446;56.272;43.922;2022-11-11T03:16:06;30.90;;;11.93;;
74892;SDS011;63446;56.272;43.922;2022-11-11T03:19:11;33.90;;;13.10;;
74892;SDS011;63446;56.272;43.922;2022-11-11T03:21:56;30.58;;;12.60;;
74892;SDS011;63446;56.272;43.922;2022-11-11T03:24:42;35.92;;;12.93;;
74892;SDS011;63446;56.272;43.922;2022-11-11T03:27:45;31.05;;;12.55;;
74892;SDS011;63446;56.272;43.922;2022-11-11T03:30:30;35.83;;;14.40;;
74892;SDS011;63446;56.272;43.922;2022-11-11T03:33:16;35.70;;;13.90;;
74892;SDS011;63446;56.272;43.922;2022-11-11T03:36:01;33.80;;;13.98;;
74892;SDS011;63446;56.272;43.922;2022-11-11T03:38:46;37.53;;;14.80;;
74892;SDS011;63446;56.272;43.922;2022-11-11T03:41:31;35.67;;;14.52;;
74892;SDS011;63446;56.272;43.922;2022-11-11T03:44:16;37.55;;;14.43;;
74892;SDS011;63446;56.272;43.922;2022-11-11T03:47:00;38.97;;;14.50;;
74892;SDS011;63446;56.272;43.922;2022-11-11T03:49:45;36.90;;;14.57;;
74892;SDS011;63446;56.272;43.922;2022-11-11T03:52:30;37.67;;;13.77;;
74892;SDS011;63446;56.272;43.922;2022-11-11T03:55:14;35.85;;;14.40;;
74892;SDS011;63446;56.272;43.922;2022-11-11T03:57:59;34.55;;;13.60;;
74892;SDS011;63446;56.272;43.922;2022-11-11T04:00:44;35.30;;;13.73;;
74892;SDS011;63446;56.272;43.922;2022-11-11T04:03:28;36.33;;;13.98;;
74892;SDS011;63446;56.272;43.922;2022-11-11T04:06:31;30.90;;;12.73;;
74892;SDS011;63446;56.272;43.922;2022-11-11T04:09:34;38.28;;;13.77;;
74892;SDS011;63446;56.272;43.922;2022-11-11T04:12:37;33.00;;;13.80;;
74892;SDS011;63446;56.272;43.922;2022-11-11T04:15:43;35.17;;;13.10;;
74892;SDS011;63446;56.272;43.922;2022-11-11T04:18:46;35.22;;;13.43;;
74892;SDS011;63446;56.272;43.922;2022-11-11T04:21:49;32.28;;;12.23;;
74892;SDS011;63446;56.272;43.922;2022-11-11T04:24:34;34.35;;;12.63;;
74892;SDS011;63446;56.272;43.922;2022-11-11T04:27:38;33.70;;;13.43;;
74892;SDS011;63446;56.272;43.922;2022-11-11T04:30:23;31.43;;;12.77;;
74892;SDS011;63446;56.272;43.922;2022-11-11T04:33:07;30.55;;;11.82;;
74892;SDS011;63446;56.272;43.922;2022-11-11T04:35:52;30.20;;;13.13;;
74892;SDS011;63446;56.272;43.922;2022-11-11T04:38:37;31.58;;;12.50;;
74892;SDS011;63446;56.272;43.922;2022-11-11T04:41:40;34.60;;;12.40;;
74892;SDS011;63446;56.272;43.922;2022-11-11T04:44:25;32.33;;;13.17;;
74892;SDS011;63446;56.272;43.922;2022-11-11T04:47:31;31.15;;;12.27;;
74892;SDS011;63446;56.272;43.922;2022-11-11T04:50:16;32.53;;;12.73;;
74892;SDS011;63446;56.272;43.922;2022-11-11T04:53:01;34.47;;;12.48;;
74892;SDS011;63446;56.272;43.922;2022-11-11T04:55:46;29.80;;;11.90;;
74892;SDS011;63446;56.272;43.922;2022-11-11T04:58:49;28.40;;;11.53;;
74892;SDS011;63446;56.272;43.922;2022-11-11T05:01:53;27.30;;;10.75;;
74892;SDS011;63446;56.272;43.922;2022-11-11T05:04:57;24.98;;;11.80;;
74892;SDS011;63446;56.272;43.922;2022-11-11T05:07:41;31.77;;;11.70;;
74892;SDS011;63446;56.272;43.922;2022-11-11T05:10:44;27.73;;;10.93;;
74892;SDS011;63446;56.272;43.922;2022-11-11T05:13:29;26.57;;;11.67;;
74892;SDS011;63446;56.272;43.922;2022-11-11T05:16:33;29.48;;;11.80;;
74892;SDS011;63446;56.272;43.922;2022-11-11T05:19:40;30.70;;;11.80;;
74892;SDS011;63446;56.272;43.922;2022-11-11T05:22:43;25.30;;;11.25;;
74892;SDS011;63446;56.272;43.922;2022-11-11T05:25:28;31.08;;;11.95;;
74892;SDS011;63446;56.272;43.922;2022-11-11T05:28:15;29.83;;;11.90;;
74892;SDS011;63446;56.272;43.922;2022-11-11T05:30:59;27.13;;;11.75;;
74892;SDS011;63446;56.272;43.922;2022-11-11T05:33:44;25.55;;;10.70;;
74892;SDS011;63446;56.272;43.922;2022-11-11T05:36:28;27.80;;;11.45;;
74892;SDS011;63446;56.272;43.922;2022-11-11T05:39:14;29.13;;;10.80;;
74892;SDS011;63446;56.272;43.922;2022-11-11T05:41:59;27.03;;;10.10;;
74892;SDS011;63446;56.272;43.922;2022-11-11T05:44:43;28.85;;;10.63;;
74892;SDS011;63446;56.272;43.922;2022-11-11T05:47:31;26.25;;;10.32;;
74892;SDS011;63446;56.272;43.922;2022-11-11T05:50:15;25.95;;;11.00;;
74892;SDS011;63446;56.272;43.922;2022-11-11T05:53:00;30.35;;;11.10;;
74892;SDS011;63446;56.272;43.922;2022-11-11T05:55:44;29.63;;;11.60;;
74892;SDS011;63446;56.272;43.922;2022-11-11T05:58:29;30.70;;;11.05;;
74892;SDS011;63446;56.272;43.922;2022-11-11T06:01:14;26.85;;;10.73;;
74892;SDS011;63446;56.272;43.922;2022-11-11T06:04:00;30.05;;;11.98;;
74892;SDS011;63446;56.272;43.922;2022-11-11T06:06:45;28.67;;;10.85;;
74892;SDS011;63446;56.272;43.922;2022-11-11T06:09:29;28.10;;;11.30;;
74892;SDS011;63446;56.272;43.922;2022-11-11T06:12:13;29.95;;;11.60;;
74892;SDS011;63446;56.272;43.922;2022-11-11T06:14:59;26.02;;;11.45;;
74892;SDS011;63446;56.272;43.922;2022-11-11T06:17:43;27.40;;;11.63;;
74892;SDS011;63446;56.272;43.922;2022-11-11T06:20:27;30.42;;;11.82;;
74892;SDS011;63446;56.272;43.922;2022-11-11T06:23:12;27.73;;;11.20;;
74892;SDS011;63446;56.272;43.922;2022-11-11T06:25:57;25.70;;;11.15;;
74892;SDS011;63446;56.272;43.922;2022-11-11T06:28:57;27.40;;;10.77;;
74892;SDS011;63446;56.272;43.922;2022-11-11T06:31:42;24.40;;;9.65;;
74892;SDS011;63446;56.272;43.922;2022-11-11T06:34:28;28.15;;;11.02;;
74892;SDS011;63446;56.272;43.922;2022-11-11T06:37:13;26.43;;;11.97;;
74892;SDS011;63446;56.272;43.922;2022-11-11T06:39:57;27.55;;;11.15;;
74892;SDS011;63446;56.272;43.922;2022-11-11T06:42:41;26.38;;;10.25;;
74892;SDS011;63446;56.272;43.922;2022-11-11T06:45:27;26.48;;;10.05;;
74892;SDS011;63446;56.272;43.922;2022-11-11T06:48:13;24.80;;;10.23;;
74892;SDS011;63446;56.272;43.922;2022-11-11T06:51:00;27.20;;;10.70;;
74892;SDS011;63446;56.272;43.922;2022-11-11T06:53:47;25.48;;;10.02;;
74892;SDS011;63446;56.272;43.922;2022-11-11T06:56:32;25.55;;;9.10;;
74892;SDS011;63446;56.272;43.922;2022-11-11T06:59:16;27.27;;;9.95;;
74892;SDS011;63446;56.272;43.922;2022-11-11T07:02:01;22.52;;;9.75;;
74892;SDS011;63446;56.272;43.922;2022-11-11T07:04:45;26.03;;;9.30;;
74892;SDS011;63446;56.272;43.922;2022-11-11T07:07:30;23.70;;;9.50;;
74892;SDS011;63446;56.272;43.922;2022-11-11T07:10:17;20.48;;;9.50;;
74892;SDS011;63446;56.272;43.922;2022-11-11T07:13:01;24.52;;;9.57;;
74892;SDS011;63446;56.272;43.922;2022-11-11T07:15:46;23.30;;;8.80;;
74892;SDS011;63446;56.272;43.922;2022-11-11T07:18:31;22.10;;;9.50;;
74892;SDS011;63446;56.272;43.922;2022-11-11T07:21:17;25.67;;;9.07;;
74892;SDS011;63446;56.272;43.922;2022-11-11T07:24:01;25.30;;;10.00;;
74892;SDS011;63446;56.272;43.922;2022-11-11T07:26:45;24.15;;;9.50;;
74892;SDS011;63446;56.272;43.922;2022-11-11T07:29:30;24.98;;;9.65;;
74892;SDS011;63446;56.272;43.922;2022-11-11T07:32:14;25.27;;;9.50;;
74892;SDS011;63446;56.272;43.922;2022-11-11T07:35:00;21.20;;;9.60;;
74892;SDS011;63446;56.272;43.922;2022-11-11T07:37:47;20.40;;;8.73;;
74892;SDS011;63446;56.272;43.922;2022-11-11T07:40:32;25.27;;;9.15;;
74892;SDS011;63446;56.272;43.922;2022-11-11T07:43:20;19.90;;;8.85;;
74892;SDS011;63446;56.272;43.922;2022-11-11T07:46:05;23.07;;;9.33;;
74892;SDS011;63446;56.272;43.922;2022-11-11T07:48:50;22.48;;;8.20;;
74892;SDS011;63446;56.272;43.922;2022-11-11T07:51:34;19.55;;;8.50;;
74892;SDS011;63446;56.272;43.922;2022-11-11T07:54:18;23.02;;;8.75;;
74892;SDS011;63446;56.272;43.922;2022-11-11T07:57:03;20.90;;;8.45;;
74892;SDS011;63446;56.272;43.922;2022-11-11T07:59:50;21.77;;;7.90;;
74892;SDS011;63446;56.272;43.922;2022-11-11T08:02:34;23.02;;;8.15;;
74892;SDS011;63446;56.272;43.922;2022-11-11T08:05:20;25.38;;;8.18;;
74892;SDS011;63446;56.272;43.922;2022-11-11T08:08:05;18.10;;;7.40;;
74892;SDS011;63446;56.272;43.922;2022-11-11T08:10:54;20.40;;;7.85;;
74892;SDS011;63446;56.272;43.922;2022-11-11T08:13:38;20.93;;;8.33;;
74892;SDS011;63446;56.272;43.922;2022-11-11T08:16:24;19.25;;;7.68;;
74892;SDS011;63446;56.272;43.922;2022-11-11T08:19:08;18.70;;;7.13;;
74892;SDS011;63446;56.272;43.922;2022-11-11T08:21:53;17.27;;;6.72;;
74892;SDS011;63446;56.272;43.922;2022-11-11T08:24:37;16.90;;;7.35;;
74892;SDS011;63446;56.272;43.922;2022-11-11T08:27:22;15.23;;;6.43;;
74892;SDS011;63446;56.272;43.922;2022-11-11T08:30:08;14.65;;;6.13;;
74892;SDS011;63446;56.272;43.922;2022-11-11T08:33:10;15.48;;;6.47;;
74892;SDS011;63446;56.272;43.922;2022-11-11T08:35:57;15.70;;;6.47;;
74892;SDS011;63446;56.272;43.922;2022-11-11T08:38:43;13.60;;;6.38;;
74892;SDS011;63446;56.272;43.922;2022-11-11T08:41:27;15.03;;;6.50;;
74892;SDS011;63446;56.272;43.922;2022-11-11T08:44:12;16.27;;;6.38;;
74892;SDS011;63446;56.272;43.922;2022-11-11T08:46:59;15.00;;;6.03;;
74892;SDS011;63446;56.272;43.922;2022-11-11T08:49:45;16.27;;;6.10;;
74892;SDS011;63446;56.272;43.922;2022-11-11T08:52:32;15.57;;;6.35;;
74892;SDS011;63446;56.272;43.922;2022-11-11T08:55:16;15.33;;;5.80;;
74892;SDS011;63446;56.272;43.922;2022-11-11T08:58:04;18.88;;;6.15;;
74892;SDS011;63446;56.272;43.922;2022-11-11T09:00:50;14.70;;;5.85;;
74892;SDS011;63446;56.272;43.922;2022-11-11T09:03:34;13.30;;;5.82;;
74892;SDS011;63446;56.272;43.922;2022-11-11T09:06:19;15.23;;;6.13;;
74892;SDS011;63446;56.272;43.922;2022-11-11T09:09:04;16.40;;;6.13;;
74892;SDS011;63446;56.272;43.922;2022-11-11T09:11:48;15.15;;;5.70;;
74892;SDS011;63446;56.272;43.922;2022-11-11T09:14:33;15.20;;;5.40;;
74892;SDS011;63446;56.272;43.922;2022-11-11T09:17:18;15.20;;;5.40;;
74892;SDS011;63446;56.272;43.922;2022-11-11T09:20:05;13.80;;;5.80;;
74892;SDS011;63446;56.272;43.922;2022-11-11T09:22:50;13.00;;;5.63;;
74892;SDS011;63446;56.272;43.922;2022-11-11T09:25:35;12.13;;;5.65;;
74892;SDS011;63446;56.272;43.922;2022-11-11T09:28:20;14.73;;;6.10;;
74892;SDS011;63446;56.272;43.922;2022-11-11T09:31:05;12.98;;;5.63;;
74892;SDS011;63446;56.272;43.922;2022-11-11T09:33:50;13.18;;;5.57;;
74892;SDS011;63446;56.272;43.922;2022-11-11T09:36:35;14.87;;;6.20;;
74892;SDS011;63446;56.272;43.922;2022-11-11T09:39:19;13.68;;;5.30;;
74892;SDS011;63446;56.272;43.922;2022-11-11T09:50:47;12.03;;;5.23;;
74892;SDS011;63446;56.272;43.922;2022-11-11T09:53:40;15.20;;;4.80;;
74892;SDS011;63446;56.272;43.922;2022-11-11T09:56:28;13.57;;;4.70;;
74892;SDS011;63446;56.272;43.922;2022-11-11T09:59:23;11.32;;;5.20;;
74892;SDS011;63446;56.272;43.922;2022-11-11T10:02:29;12.30;;;5.00;;
74892;SDS011;63446;56.272;43.922;2022-11-11T10:05:25;12.90;;;5.00;;
74892;SDS011;63446;56.272;43.922;2022-11-11T10:08:27;13.75;;;4.97;;
74892;SDS011;63446;56.272;43.922;2022-11-11T10:11:26;12.60;;;5.28;;
74892;SDS011;63446;56.272;43.922;2022-11-11T10:14:23;12.43;;;5.15;;
74892;SDS011;63446;56.272;43.922;2022-11-11T10:20:37;9.97;;;4.67;;
74892;SDS011;63446;56.272;43.922;2022-11-11T10:23:29;11.52;;;4.70;;
74892;SDS011;63446;56.272;43.922;2022-11-11T10:26:19;12.05;;;5.60;;
74892;SDS011;63446;56.272;43.922;2022-11-11T10:29:12;13.27;;;4.90;;
74892;SDS011;63446;56.272;43.922;2022-11-11T10:32:02;13.95;;;5.82;;
74892;SDS011;63446;56.272;43.922;2022-11-11T10:34:56;13.17;;;5.60;;
74892;SDS011;63446;56.272;43.922;2022-11-11T10:37:43;13.48;;;4.93;;
74892;SDS011;63446;56.272;43.922;2022-11-11T10:40:35;11.55;;;5.32;;
74892;SDS011;63446;56.272;43.922;2022-11-11T10:46:34;13.38;;;5.55;;
74892;SDS011;63446;56.272;43.922;2022-11-11T10:49:24;14.70;;;5.47;;
74892;SDS011;63446;56.272;43.922;2022-11-11T10:52:15;13.23;;;6.20;;
74892;SDS011;63446;56.272;43.922;2022-11-11T10:55:08;13.38;;;5.55;;
74892;SDS011;63446;56.272;43.922;2022-11-11T10:58:04;13.27;;;5.43;;
74892;SDS011;63446;56.272;43.922;2022-11-11T11:00:56;15.00;;;5.03;;
74892;SDS011;63446;56.272;43.922;2022-11-11T11:03:44;13.60;;;5.73;;
74892;SDS011;63446;56.272;43.922;2022-11-11T11:06:37;13.30;;;5.68;;
74892;SDS011;63446;56.272;43.922;2022-11-11T11:09:29;13.82;;;6.30;;
74892;SDS011;63446;56.272;43.922;2022-11-11T11:12:26;14.43;;;5.53;;
74892;SDS011;63446;56.272;43.922;2022-11-11T11:15:21;15.43;;;5.97;;
74892;SDS011;63446;56.272;43.922;2022-11-11T11:18:12;15.23;;;6.63;;
74892;SDS011;63446;56.272;43.922;2022-11-11T11:21:02;13.25;;;5.60;;
74892;SDS011;63446;56.272;43.922;2022-11-11T11:23:48;13.75;;;5.93;;
74892;SDS011;63446;56.272;43.922;2022-11-11T11:26:46;13.30;;;5.60;;
74892;SDS011;63446;56.272;43.922;2022-11-11T11:29:42;14.73;;;5.22;;
74892;SDS011;63446;56.272;43.922;2022-11-11T11:32:31;13.27;;;5.60;;
74892;SDS011;63446;56.272;43.922;2022-11-11T11:38:16;14.75;;;5.45;;
74892;SDS011;63446;56.272;43.922;2022-11-11T11:41:01;12.77;;;5.40;;
74892;SDS011;63446;56.272;43.922;2022-11-11T11:43:46;17.63;;;6.40;;
74892;SDS011;63446;56.272;43.922;2022-11-11T11:55:10;13.70;;;5.32;;
74892;SDS011;63446;56.272;43.922;2022-11-11T11:58:15;13.13;;;5.53;;
74892;SDS011;63446;56.272;43.922;2022-11-11T12:03:57;13.55;;;5.43;;
74892;SDS011;63446;56.272;43.922;2022-11-11T12:10:19;17.52;;;5.78;;
74892;SDS011;63446;56.272;43.922;2022-11-11T12:13:20;12.23;;;5.90;;
74892;SDS011;63446;56.272;43.922;2022-11-11T12:19:27;13.80;;;5.75;;
74892;SDS011;63446;56.272;43.922;2022-11-11T12:43:59;15.88;;;5.75;;
74892;SDS011;63446;56.272;43.922;2022-11-11T12:47:26;12.87;;;5.77;;
74892;SDS011;63446;56.272;43.922;2022-11-11T12:53:01;15.20;;;6.00;;
74892;SDS011;63446;56.272;43.922;2022-11-11T12:55:53;12.65;;;5.60;;
74892;SDS011;63446;56.272;43.922;2022-11-11T13:08:08;13.70;;;6.18;;
74892;SDS011;63446;56.272;43.922;2022-11-11T13:17:31;14.83;;;6.13;;
74892;SDS011;63446;56.272;43.922;2022-11-11T13:23:15;13.95;;;6.45;;
74892;SDS011;63446;56.272;43.922;2022-11-11T13:26:01;20.40;;;7.32;;
74892;SDS011;63446;56.272;43.922;2022-11-11T13:29:02;17.15;;;7.28;;
74892;SDS011;63446;56.272;43.922;2022-11-11T13:32:02;16.30;;;6.93;;
74892;SDS011;63446;56.272;43.922;2022-11-11T13:34:53;21.30;;;9.25;;
74892;SDS011;63446;56.272;43.922;2022-11-11T13:37:39;26.13;;;11.45;;
74892;SDS011;63446;56.272;43.922;2022-11-11T13:40:40;92.55;;;45.40;;
74892;SDS011;63446;56.272;43.922;2022-11-11T13:43:31;33.25;;;15.95;;
74892;SDS011;63446;56.272;43.922;2022-11-11T13:46:42;21.57;;;9.63;;
74892;SDS011;63446;56.272;43.922;2022-11-11T13:49:33;18.08;;;8.55;;
74892;SDS011;63446;56.272;43.922;2022-11-11T13:52:26;18.88;;;7.93;;
74892;SDS011;63446;56.272;43.922;2022-11-11T13:55:26;20.13;;;7.93;;
74892;SDS011;63446;56.272;43.922;2022-11-11T13:58:20;21.13;;;8.68;;
74892;SDS011;63446;56.272;43.922;2022-11-11T14:01:09;20.00;;;7.97;;
74892;SDS011;63446;56.272;43.922;2022-11-11T14:03:59;19.00;;;7.28;;
74892;SDS011;63446;56.272;43.922;2022-11-11T14:09:53;21.70;;;8.55;;
74892;SDS011;63446;56.272;43.922;2022-11-11T14:12:40;22.15;;;8.52;;
74892;SDS011;63446;56.272;43.922;2022-11-11T14:24:41;20.88;;;8.50;;
74892;SDS011;63446;56.272;43.922;2022-11-11T14:27:30;21.65;;;8.40;;
74892;SDS011;63446;56.272;43.922;2022-11-11T14:30:38;23.07;;;8.70;;
74892;SDS011;63446;56.272;43.922;2022-11-11T14:33:37;25.40;;;9.45;;
74892;SDS011;63446;56.272;43.922;2022-11-11T14:40:08;27.52;;;10.65;;
74892;SDS011;63446;56.272;43.922;2022-11-11T14:42:56;30.90;;;11.88;;
74892;SDS011;63446;56.272;43.922;2022-11-11T14:55:31;28.30;;;9.68;;
74892;SDS011;63446;56.272;43.922;2022-11-11T14:58:46;27.42;;;10.50;;
74892;SDS011;63446;56.272;43.922;2022-11-11T15:15:55;25.42;;;8.85;;
74892;SDS011;63446;56.272;43.922;2022-11-11T15:37:40;27.13;;;10.30;;
74892;SDS011;63446;56.272;43.922;2022-11-11T15:40:25;21.77;;;9.23;;
74892;SDS011;63446;56.272;43.922;2022-11-11T15:46:04;23.90;;;9.75;;
74892;SDS011;63446;56.272;43.922;2022-11-11T15:48:49;27.63;;;10.20;;
74892;SDS011;63446;56.272;43.922;2022-11-11T15:51:35;22.17;;;9.65;;
74892;SDS011;63446;56.272;43.922;2022-11-11T15:54:22;22.33;;;9.38;;
74892;SDS011;63446;56.272;43.922;2022-11-11T16:00:23;28.42;;;11.45;;
74892;SDS011;63446;56.272;43.922;2022-11-11T16:03:50;25.43;;;9.80;;
74892;SDS011;63446;56.272;43.922;2022-11-11T16:06:18;21.85;;;9.32;;
74892;SDS011;63446;56.272;43.922;2022-11-11T16:09:03;19.50;;;7.35;;
74892;SDS011;63446;56.272;43.922;2022-11-11T16:11:49;24.05;;;8.73;;
74892;SDS011;63446;56.272;43.922;2022-11-11T16:14:38;22.33;;;9.23;;
74892;SDS011;63446;56.272;43.922;2022-11-11T16:17:32;23.33;;;9.17;;
74892;SDS011;63446;56.272;43.922;2022-11-11T16:20:24;21.17;;;8.82;;
74892;SDS011;63446;56.272;43.922;2022-11-11T16:23:15;22.52;;;9.35;;
74892;SDS011;63446;56.272;43.922;2022-11-11T16:26:02;24.35;;;9.90;;
74892;SDS011;63446;56.272;43.922;2022-11-11T16:28:52;32.05;;;12.63;;
74892;SDS011;63446;56.272;43.922;2022-11-11T16:31:39;38.97;;;14.83;;
74892;SDS011;63446;56.272;43.922;2022-11-11T16:37:12;19.48;;;8.65;;
74892;SDS011;63446;56.272;43.922;2022-11-11T16:46:08;18.67;;;7.77;;
74892;SDS011;63446;56.272;43.922;2022-11-11T16:48:57;14.10;;;6.45;;
74892;SDS011;63446;56.272;43.922;2022-11-11T16:51:43;19.13;;;7.18;;
74892;SDS011;63446;56.272;43.922;2022-11-11T16:54:31;20.00;;;8.23;;
74892;SDS011;63446;56.272;43.922;2022-11-11T16:57:25;22.08;;;9.02;;
74892;SDS011;63446;56.272;43.922;2022-11-11T17:00:14;19.07;;;8.00;;
74892;SDS011;63446;56.272;43.922;2022-11-11T17:06:07;19.45;;;7.80;;
74892;SDS011;63446;56.272;43.922;2022-11-11T17:08:53;20.13;;;7.60;;
74892;SDS011;63446;56.272;43.922;2022-11-11T17:11:41;32.83;;;13.32;;
74892;SDS011;63446;56.272;43.922;2022-11-11T17:14:28;22.80;;;9.27;;
74892;SDS011;63446;56.272;43.922;2022-11-11T17:17:16;23.20;;;9.10;;
74892;SDS011;63446;56.272;43.922;2022-11-11T17:20:04;21.88;;;9.55;;
74892;SDS011;63446;56.272;43.922;2022-11-11T17:22:53;27.08;;;10.82;;
74892;SDS011;63446;56.272;43.922;2022-11-11T17:25:39;25.58;;;11.43;;
74892;SDS011;63446;56.272;43.922;2022-11-11T17:28:24;35.83;;;13.73;;
74892;SDS011;63446;56.272;43.922;2022-11-11T17:31:10;34.70;;;14.32;;
74892;SDS011;63446;56.272;43.922;2022-11-11T17:33:57;26.98;;;10.77;;
74892;SDS011;63446;56.272;43.922;2022-11-11T17:36:42;18.92;;;7.63;;
74892;SDS011;63446;56.272;43.922;2022-11-11T17:39:27;19.27;;;7.60;;
74892;SDS011;63446;56.272;43.922;2022-11-11T17:42:11;20.23;;;7.70;;
74892;SDS011;63446;56.272;43.922;2022-11-11T17:44:57;19.08;;;8.05;;
74892;SDS011;63446;56.272;43.922;2022-11-11T17:47:41;21.30;;;8.68;;
74892;SDS011;63446;56.272;43.922;2022-11-11T17:50:25;20.30;;;8.30;;
74892;SDS011;63446;56.272;43.922;2022-11-11T17:53:10;19.02;;;7.68;;
74892;SDS011;63446;56.272;43.922;2022-11-11T17:55:58;17.73;;;7.07;;
74892;SDS011;63446;56.272;43.922;2022-11-11T17:58:45;19.02;;;7.95;;
74892;SDS011;63446;56.272;43.922;2022-11-11T18:01:29;19.60;;;7.82;;
74892;SDS011;63446;56.272;43.922;2022-11-11T18:04:14;18.00;;;7.63;;
74892;SDS011;63446;56.272;43.922;2022-11-11T18:06:59;25.17;;;10.13;;
74892;SDS011;63446;56.272;43.922;2022-11-11T18:09:44;22.10;;;9.03;;
74892;SDS011;63446;56.272;43.922;2022-11-11T18:12:30;25.15;;;9.77;;
74892;SDS011;63446;56.272;43.922;2022-11-11T18:15:16;25.02;;;10.15;;
74892;SDS011;63446;56.272;43.922;2022-11-11T18:18:01;19.98;;;8.27;;
74892;SDS011;63446;56.272;43.922;2022-11-11T18:20:45;20.05;;;7.15;;
74892;SDS011;63446;56.272;43.922;2022-11-11T18:23:31;17.47;;;7.23;;
74892;SDS011;63446;56.272;43.922;2022-11-11T18:26:20;19.15;;;7.22;;
74892;SDS011;63446;56.272;43.922;2022-11-11T18:29:17;19.33;;;7.43;;
74892;SDS011;63446;56.272;43.922;2022-11-11T18:32:02;18.55;;;7.45;;
74892;SDS011;63446;56.272;43.922;2022-11-11T18:34:49;18.00;;;7.32;;
74892;SDS011;63446;56.272;43.922;2022-11-11T18:37:46;20.20;;;7.53;;
74892;SDS011;63446;56.272;43.922;2022-11-11T18:40:34;18.42;;;7.32;;
74892;SDS011;63446;56.272;43.922;2022-11-11T18:43:24;17.92;;;7.15;;
74892;SDS011;63446;56.272;43.922;2022-11-11T18:46:21;19.08;;;7.35;;
74892;SDS011;63446;56.272;43.922;2022-11-11T18:49:11;18.10;;;6.63;;
74892;SDS011;63446;56.272;43.922;2022-11-11T18:51:57;21.30;;;8.23;;
74892;SDS011;63446;56.272;43.922;2022-11-11T18:55:03;21.73;;;8.07;;
74892;SDS011;63446;56.272;43.922;2022-11-11T18:57:48;19.27;;;8.43;;
74892;SDS011;63446;56.272;43.922;2022-11-11T19:00:33;17.58;;;7.70;;
74892;SDS011;63446;56.272;43.922;2022-11-11T19:03:30;16.98;;;7.10;;
74892;SDS011;63446;56.272;43.922;2022-11-11T19:06:19;14.97;;;6.50;;
74892;SDS011;63446;56.272;43.922;2022-11-11T19:09:09;14.35;;;6.15;;
74892;SDS011;63446;56.272;43.922;2022-11-11T19:11:55;16.65;;;7.03;;